createdAt,value
2022-08-25T00:00:56.326Z,23.98999977
2022-08-25T00:02:05.050Z,23.96999931
2022-08-25T00:03:04.929Z,23.93000031
2022-08-25T00:04:00.609Z,23.93000031
2022-08-25T00:05:00.706Z,23.93000031
2022-08-25T00:07:00.677Z,23.95999908
2022-08-25T00:07:03.346Z,23.95999908
2022-08-25T00:07:56.475Z,23.98999977
2022-08-25T00:08:51.781Z,24.02000046
2022-08-25T00:09:52.411Z,24.03000069
2022-08-25T00:11:03.215Z,24.02000046
2022-08-25T00:11:03.502Z,24.02000046
2022-08-25T00:11:56.109Z,24.02000046
2022-08-25T00:12:56.096Z,24.04000092
2022-08-25T00:13:51.814Z,24.02000046
2022-08-25T00:14:55.389Z,24.01000023
2022-08-25T00:16:56.103Z,24.01000023
2022-08-25T00:17:50.899Z,24
2022-08-25T00:18:54.309Z,24.02000046
2022-08-25T00:19:47.324Z,24.06999969
2022-08-25T00:21:42.777Z,24.12000084
2022-08-25T00:22:50.557Z,24.12000084
2022-08-25T00:23:43.586Z,24.12000084
2022-08-25T00:24:45.189Z,24.12999916
2022-08-25T00:25:40.779Z,24.12000084
2022-08-25T00:26:42.948Z,24.12000084
2022-08-25T00:27:38.225Z,24.12000084
2022-08-25T00:28:40.805Z,24.10000038
2022-08-25T00:29:35.339Z,24.11000061
2022-08-25T00:30:40.637Z,24.11000061
2022-08-25T00:33:21.963Z,24.17000008
2022-08-25T00:34:08.975Z,24.25
2022-08-25T00:35:08.541Z,24.27000046
2022-08-25T00:36:07.801Z,24.27000046
2022-08-25T00:37:03.248Z,24.25
2022-08-25T00:38:06.103Z,24.22999954
2022-08-25T00:39:07.974Z,24.20999908
2022-08-25T00:40:08.234Z,24.20000076
2022-08-25T00:42:11.732Z,24.15999985
2022-08-25T00:42:15.759Z,24.15999985
2022-08-25T00:43:08.475Z,24.18000031
2022-08-25T00:44:08.620Z,24.21999931
2022-08-25T00:45:09.165Z,24.21999931
2022-08-25T00:47:08.680Z,24.19000053
2022-08-25T00:48:05.076Z,24.17000008
2022-08-25T00:49:22.462Z,24.15999985
2022-08-25T00:49:24.727Z,24.15999985
2022-08-25T00:50:08.148Z,24.17000008
2022-08-25T00:51:07.247Z,24.21999931
2022-08-25T00:52:06.682Z,24.20999908
2022-08-25T00:53:03.044Z,24.19000053
2022-08-25T00:54:06.304Z,24.18000031
2022-08-25T00:55:05.765Z,24.14999962
2022-08-25T00:55:07.670Z,24.14999962
2022-08-25T00:56:55.400Z,24.15999985
2022-08-25T00:57:59.188Z,24.14999962
2022-08-25T00:58:55.412Z,24.12999916
2022-08-25T00:59:54.411Z,24.10000038
2022-08-25T01:01:54.286Z,24.04999924
2022-08-25T01:02:53.509Z,24.03000069
2022-08-25T01:03:53.182Z,24
2022-08-25T01:04:49.517Z,23.97999954
2022-08-25T01:05:50.093Z,23.96999931
2022-08-25T01:06:44.406Z,23.95999908
2022-08-25T01:07:46.562Z,23.92000008
2022-08-25T01:08:41.060Z,23.89999962
2022-08-25T01:09:40.529Z,23.87999916
2022-08-25T01:10:41.087Z,23.86000061
2022-08-25T01:12:42.257Z,23.84000015
2022-08-25T01:13:37.218Z,23.81999969
2022-08-25T01:15:16.757Z,23.87000084
2022-08-25T01:17:12.047Z,23.98999977
2022-08-25T01:18:07.494Z,23.95999908
2022-08-25T01:19:10.205Z,23.92000008
2022-08-25T01:19:15.652Z,23.92000008
2022-08-25T01:21:52.134Z,24.03000069
2022-08-25T01:22:55.307Z,24.04999924
2022-08-25T01:23:48.623Z,24.01000023
2022-08-25T01:24:49.166Z,24
2022-08-25T01:26:44.967Z,23.95999908
2022-08-25T01:27:39.435Z,23.89999962
2022-08-25T01:28:38.004Z,23.84000015
2022-08-25T01:30:30.740Z,23.84000015
2022-08-25T01:32:02.340Z,23.89999962
2022-08-25T01:33:03.460Z,23.87000084
2022-08-25T01:33:57.793Z,23.82999992
2022-08-25T01:35:00.471Z,23.76000023
2022-08-25T01:36:58.107Z,23.67000008
2022-08-25T01:37:58.065Z,23.60000038
2022-08-25T01:38:58.270Z,23.55999947
2022-08-25T01:39:57.477Z,23.53000069
2022-08-25T01:41:54.683Z,23.47999954
2022-08-25T01:42:53.692Z,23.45000076
2022-08-25T01:43:51.888Z,23.42000008
2022-08-25T01:44:55.894Z,23.39999962
2022-08-25T01:46:53.580Z,23.37999916
2022-08-25T01:47:49.115Z,23.35000038
2022-08-25T01:48:49.232Z,23.32999992
2022-08-25T01:49:46.203Z,23.30999947
2022-08-25T01:50:42.282Z,23.29999924
2022-08-25T01:51:41.741Z,23.29000092
2022-08-25T01:52:37.698Z,23.27000046
2022-08-25T01:53:37.758Z,23.27000046
2022-08-25T01:54:32.677Z,23.29000092
2022-08-25T01:55:33.968Z,23.28000069
2022-08-25T01:57:30.100Z,23.23999977
2022-08-25T01:58:25.589Z,23.20999908
2022-08-25T01:59:29.058Z,23.21999931
2022-08-25T02:00:23.647Z,23.21999931
2022-08-25T02:02:21.653Z,23.18000031
2022-08-25T02:03:18.543Z,23.14999962
2022-08-25T02:04:17.419Z,23.10000038
2022-08-25T02:05:12.464Z,23.07999992
2022-08-25T02:06:08.782Z,23.10000038
2022-08-25T02:07:10.821Z,23.04999924
2022-08-25T02:08:06.551Z,23.04999924
2022-08-25T02:09:05.571Z,23.09000015
2022-08-25T02:10:02.238Z,23.07999992
2022-08-25T02:11:59.606Z,23.06999969
2022-08-25T02:12:56.335Z,23.04000092
2022-08-25T02:13:58.434Z,23
2022-08-25T02:15:48.313Z,23.04000092
2022-08-25T02:16:25.547Z,23.10000038
2022-08-25T02:17:24.734Z,23.12999916
2022-08-25T02:18:21.641Z,23.11000061
2022-08-25T02:19:22.468Z,23.04999924
2022-08-25T02:20:26.332Z,23
2022-08-25T02:22:32.852Z,22.94000053
2022-08-25T02:23:30.953Z,22.92000008
2022-08-25T02:24:38.897Z,22.88999939
2022-08-25T02:25:35.330Z,22.84000015
2022-08-25T02:27:35.040Z,22.79999924
2022-08-25T02:28:35.186Z,22.77000046
2022-08-25T02:29:36.107Z,22.73999977
2022-08-25T02:30:31.729Z,22.71999931
2022-08-25T02:32:26.137Z,22.72999954
2022-08-25T02:33:29.730Z,22.70999908
2022-08-25T02:34:23.923Z,22.70999908
2022-08-25T02:36:23.191Z,22.71999931
2022-08-25T02:38:22.526Z,22.68000031
2022-08-25T02:39:22.491Z,22.65999985
2022-08-25T02:40:19.327Z,22.65999985
2022-08-25T02:42:13.536Z,22.64999962
2022-08-25T02:43:11.190Z,22.64999962
2022-08-25T02:44:15.410Z,22.62999916
2022-08-25T02:45:20.568Z,22.62000084
2022-08-25T02:48:57.711Z,22.82999992
2022-08-25T02:50:00.228Z,22.95000076
2022-08-25T02:51:59.843Z,22.94000053
2022-08-25T02:52:59.217Z,22.90999985
2022-08-25T02:53:57.082Z,22.86000061
2022-08-25T02:55:00.674Z,22.82999992
2022-08-25T02:55:55.408Z,22.79999924
2022-08-25T02:56:54.682Z,22.77000046
2022-08-25T02:57:49.094Z,22.76000023
2022-08-25T02:58:54.048Z,22.70999908
2022-08-25T02:59:50.832Z,22.69000053
2022-08-25T03:00:50.404Z,22.65999985
2022-08-25T03:01:47.055Z,22.63999939
2022-08-25T03:02:46.771Z,22.62000084
2022-08-25T03:03:41.173Z,22.61000061
2022-08-25T03:04:40.968Z,22.60000038
2022-08-25T03:05:35.765Z,22.61000061
2022-08-25T03:07:35.632Z,22.57999992
2022-08-25T03:08:33.988Z,22.57999992
2022-08-25T03:09:36.617Z,22.54999924
2022-08-25T03:10:31.358Z,22.54999924
2022-08-25T03:12:24.188Z,22.54999924
2022-08-25T03:13:24.074Z,22.52000046
2022-08-25T03:14:19.494Z,22.51000023
2022-08-25T03:15:23.485Z,22.48999977
2022-08-25T03:16:20.341Z,22.5
2022-08-25T03:17:24.432Z,22.46999931
2022-08-25T03:18:23.554Z,22.45000076
2022-08-25T03:19:19.946Z,22.42000008
2022-08-25T03:20:21.419Z,22.39999962
2022-08-25T03:22:15.601Z,22.40999985
2022-08-25T03:24:02.991Z,22.45999908
2022-08-25T03:24:48.828Z,22.52000046
2022-08-25T03:25:52.051Z,22.55999947
2022-08-25T03:27:51.732Z,22.5
2022-08-25T03:28:50.785Z,22.45999908
2022-08-25T03:29:48.888Z,22.44000053
2022-08-25T03:30:48.175Z,22.40999985
2022-08-25T03:30:55.755Z,22.40999985
2022-08-25T03:31:50.299Z,22.42000008
2022-08-25T03:32:47.680Z,22.42000008
2022-08-25T03:33:47.083Z,22.39999962
2022-08-25T03:34:42.633Z,22.37999916
2022-08-25T03:35:53.404Z,22.32999992
2022-08-25T03:37:56.289Z,22.26000023
2022-08-25T03:38:52.868Z,22.23999977
2022-08-25T03:39:51.509Z,22.21999931
2022-08-25T03:40:52.076Z,22.20999908
2022-08-25T03:42:58.401Z,22.15999985
2022-08-25T03:43:57.583Z,22.14999962
2022-08-25T03:45:01.511Z,22.12999916
2022-08-25T03:45:54.144Z,22.12000084
2022-08-25T03:47:47.212Z,22.11000061
2022-08-25T03:48:51.130Z,22.10000038
2022-08-25T03:49:45.628Z,22.07999992
2022-08-25T03:50:50.506Z,22.06999969
2022-08-25T03:52:42.817Z,22.07999992
2022-08-25T03:53:37.556Z,22.06999969
2022-08-25T03:54:43.309Z,22.04999924
2022-08-25T03:55:38.142Z,22.04999924
2022-08-25T03:56:39.936Z,22.05999947
2022-08-25T03:57:34.543Z,22.03000069
2022-08-25T03:58:33.067Z,22
2022-08-25T03:59:27.828Z,22
2022-08-25T04:00:32.604Z,21.95999908
2022-08-25T04:02:30.813Z,21.95999908
2022-08-25T04:04:17.335Z,22
2022-08-25T04:04:58.785Z,22.03000069
2022-08-25T04:05:58.623Z,22.06999969
2022-08-25T04:08:00.626Z,22.03000069
2022-08-25T04:09:01.248Z,22.01000023
2022-08-25T04:10:03.429Z,22.01000023
2022-08-25T04:11:13.370Z,22
2022-08-25T04:12:09.790Z,21.98999977
2022-08-25T04:13:16.172Z,21.95000076
2022-08-25T04:14:15.916Z,21.92000008
2022-08-25T04:15:15.138Z,21.90999985
2022-08-25T04:17:13.266Z,21.87999916
2022-08-25T04:18:09.847Z,21.86000061
2022-08-25T04:19:13.798Z,21.82999992
2022-08-25T04:20:14.136Z,21.81999969
2022-08-25T04:22:14.213Z,21.79000092
2022-08-25T04:23:11.245Z,21.78000069
2022-08-25T04:24:13.228Z,21.77000046
2022-08-25T04:25:15.486Z,21.75
2022-08-25T04:26:14.940Z,21.76000023
2022-08-25T04:27:15.144Z,21.75
2022-08-25T04:28:17.068Z,21.71999931
2022-08-25T04:29:14.489Z,21.70000076
2022-08-25T04:30:18.806Z,21.70000076
2022-08-25T04:32:16.247Z,21.69000053
2022-08-25T04:33:17.182Z,21.68000031
2022-08-25T04:34:29.503Z,21.67000008
2022-08-25T04:34:30.381Z,21.67000008
2022-08-25T04:34:30.567Z,21.67000008
2022-08-25T04:36:33.100Z,21.79000092
2022-08-25T04:37:03.218Z,21.88999939
2022-08-25T04:38:06.110Z,21.95999908
2022-08-25T04:39:08.674Z,21.95999908
2022-08-25T04:40:07.645Z,21.93000031
2022-08-25T04:41:09.719Z,21.90999985
2022-08-25T04:42:11.807Z,21.86000061
2022-08-25T04:43:09.468Z,21.81999969
2022-08-25T04:44:13.026Z,21.78000069
2022-08-25T04:45:16.069Z,21.73999977
2022-08-25T04:46:20.473Z,21.71999931
2022-08-25T04:47:23.700Z,21.68000031
2022-08-25T04:48:20.195Z,21.68000031
2022-08-25T04:49:20.585Z,21.65999985
2022-08-25T04:50:27.565Z,21.63999939
2022-08-25T04:51:21.092Z,21.64999962
2022-08-25T04:52:22.518Z,21.63999939
2022-08-25T04:53:20.604Z,21.62000084
2022-08-25T04:54:24.246Z,21.61000061
2022-08-25T04:55:20.044Z,21.59000015
2022-08-25T04:57:27.927Z,21.57999992
2022-08-25T04:58:26.808Z,21.57999992
2022-08-25T04:59:30.710Z,21.56999969
2022-08-25T05:00:26.854Z,21.55999947
2022-08-25T05:01:30.934Z,21.59000015
2022-08-25T05:02:25.566Z,21.57999992
2022-08-25T05:03:26.558Z,21.56999969
2022-08-25T05:04:28.262Z,21.56999969
2022-08-25T05:05:32.087Z,21.55999947
2022-08-25T05:07:32.060Z,21.61000061
2022-08-25T05:08:28.483Z,21.62000084
2022-08-25T05:09:28.863Z,21.61000061
2022-08-25T05:10:30.554Z,21.61000061
2022-08-25T05:11:27.166Z,21.62999916
2022-08-25T05:12:30.723Z,21.62000084
2022-08-25T05:13:36.554Z,21.59000015
2022-08-25T05:14:42.929Z,21.61000061
2022-08-25T05:15:43.115Z,21.61000061
2022-08-25T05:17:05.685Z,21.62000084
2022-08-25T05:17:50.677Z,21.62000084
2022-08-25T05:17:55.991Z,21.62000084
2022-08-25T05:18:50.187Z,21.65999985
2022-08-25T05:19:46.132Z,21.69000053
2022-08-25T05:20:47.946Z,21.69000053
2022-08-25T05:21:43.254Z,21.70999908
2022-08-25T05:22:43.922Z,21.69000053
2022-08-25T05:23:39.167Z,21.67000008
2022-08-25T05:24:43.386Z,21.67000008
2022-08-25T05:25:41.574Z,21.64999962
2022-08-25T05:27:39.260Z,21.65999985
2022-08-25T05:28:42.950Z,21.67000008
2022-08-25T05:29:38.618Z,21.68000031
2022-08-25T05:30:41.977Z,21.67000008
2022-08-25T05:31:45.932Z,21.69000053
2022-08-25T05:31:50.364Z,21.69000053
2022-08-25T05:32:42.725Z,21.70000076
2022-08-25T05:33:40.771Z,21.72999954
2022-08-25T05:34:38.709Z,21.73999977
2022-08-25T05:35:39.913Z,21.72999954
2022-08-25T05:36:41.273Z,21.75
2022-08-25T05:37:42.495Z,21.75
2022-08-25T05:38:40.857Z,21.73999977
2022-08-25T05:39:38.949Z,21.73999977
2022-08-25T05:40:40.455Z,21.73999977
2022-08-25T05:42:39.071Z,21.78000069
2022-08-25T05:43:33.490Z,21.79000092
2022-08-25T05:44:36.464Z,21.80999947
2022-08-25T05:45:30.853Z,21.81999969
2022-08-25T05:47:26.881Z,21.84000015
2022-08-25T05:48:31.052Z,21.86000061
2022-08-25T05:49:24.883Z,21.86000061
2022-08-25T05:50:27.762Z,21.87999916
2022-08-25T05:51:21.301Z,21.90999985
2022-08-25T05:53:05.852Z,21.96999931
2022-08-25T05:53:46.435Z,22.05999947
2022-08-25T05:54:45.860Z,22.10000038
2022-08-25T05:55:43.152Z,22.09000015
2022-08-25T05:56:45.366Z,22.09000015
2022-08-25T05:57:39.883Z,22.06999969
2022-08-25T05:58:36.928Z,22.05999947
2022-08-25T05:59:38.880Z,22.03000069
2022-08-25T06:00:35.200Z,22.03000069
2022-08-25T06:02:29.901Z,22.04999924
2022-08-25T06:03:33.396Z,22.05999947
2022-08-25T06:04:28.065Z,22.06999969
2022-08-25T06:05:30.210Z,22.06999969
2022-08-25T06:07:25.040Z,22.09000015
2022-08-25T06:08:29.537Z,22.07999992
2022-08-25T06:09:24.823Z,22.09000015
2022-08-25T06:10:29.967Z,22.12000084
2022-08-25T06:11:26.261Z,22.13999939
2022-08-25T06:12:29.529Z,22.13999939
2022-08-25T06:13:28.892Z,22.15999985
2022-08-25T06:13:29.136Z,22.15999985
2022-08-25T06:14:30.339Z,22.20000076
2022-08-25T06:15:22.809Z,22.20000076
2022-08-25T06:17:21.662Z,22.20999908
2022-08-25T06:18:22.269Z,22.21999931
2022-08-25T06:19:16.835Z,22.22999954
2022-08-25T06:20:16.096Z,22.22999954
2022-08-25T06:21:18.964Z,22.22999954
2022-08-25T06:22:14.797Z,22.23999977
2022-08-25T06:23:18.733Z,22.25
2022-08-25T06:23:44.785Z,22.25
2022-08-25T06:24:45.389Z,22.28000069
2022-08-25T06:25:40.138Z,22.28000069
2022-08-25T06:26:39.673Z,22.30999947
2022-08-25T06:27:34.346Z,22.34000015
2022-08-25T06:28:36.291Z,22.32999992
2022-08-25T06:29:32.743Z,22.35000038
2022-08-25T06:30:36.646Z,22.37999916
2022-08-25T06:32:34.286Z,22.43000031
2022-08-25T06:34:13.529Z,22.57999992
2022-08-25T06:36:45.530Z,23.15999985
2022-08-25T06:37:11.909Z,23.29000092
2022-08-25T06:38:09.920Z,23.37999916
2022-08-25T06:39:10.597Z,23.37999916
2022-08-25T06:40:04.265Z,23.32999992
2022-08-25T06:41:10.826Z,23.25
2022-08-25T06:43:06.080Z,23.12999916
2022-08-25T06:44:06.184Z,23.09000015
2022-08-25T06:45:08.137Z,23.06999969
2022-08-25T06:45:59.041Z,23.02000046
2022-08-25T06:47:54.932Z,23.02000046
2022-08-25T06:48:52.843Z,23.02000046
2022-08-25T06:49:46.868Z,23.04000092
2022-08-25T06:50:50.533Z,23.02000046
2022-08-25T06:51:48.341Z,23.03000069
2022-08-25T06:52:42.697Z,23.04000092
2022-08-25T06:53:41.022Z,23.04000092
2022-08-25T06:54:39.184Z,23.09000015
2022-08-25T06:55:39.334Z,23.09000015
2022-08-25T06:57:33.255Z,23.12000084
2022-08-25T06:58:33.430Z,23.14999962
2022-08-25T06:59:25.133Z,23.14999962
2022-08-25T06:59:32.470Z,23.14999962
2022-08-25T07:00:30.297Z,23.21999931
2022-08-25T07:00:31.631Z,23.21999931
2022-08-25T07:01:25.991Z,23.28000069
2022-08-25T07:02:21.893Z,23.34000015
2022-08-25T07:03:19.506Z,23.39999962
2022-08-25T07:04:12.787Z,23.44000053
2022-08-25T07:05:13.215Z,23.46999931
2022-08-25T07:06:06.252Z,23.48999977
2022-08-25T07:07:59.267Z,23.54000092
2022-08-25T07:08:55.666Z,23.54999924
2022-08-25T07:09:56.268Z,23.56999969
2022-08-25T07:10:51.760Z,23.56999969
2022-08-25T07:12:44.576Z,23.60000038
2022-08-25T07:13:43.926Z,23.63999939
2022-08-25T07:14:38.306Z,23.67000008
2022-08-25T07:15:34.180Z,23.70000076
2022-08-25T07:17:20.421Z,23.79999924
2022-08-25T07:18:01.096Z,23.88999939
2022-08-25T07:19:01.598Z,23.95999908
2022-08-25T07:19:58.931Z,24
2022-08-25T07:21:02.610Z,24.01000023
2022-08-25T07:21:59.076Z,24.02000046
2022-08-25T07:22:55.673Z,24.03000069
2022-08-25T07:23:55.188Z,24.04999924
2022-08-25T07:24:51.762Z,24.06999969
2022-08-25T07:25:51.236Z,24.06999969
2022-08-25T07:27:48.913Z,24.12000084
2022-08-25T07:28:47.208Z,24.15999985
2022-08-25T07:28:47.454Z,24.15999985
2022-08-25T07:29:42.269Z,24.20000076
2022-08-25T07:30:37.079Z,24.27000046
2022-08-25T07:32:31.565Z,24.31999969
2022-08-25T07:33:28.632Z,24.36000061
2022-08-25T07:34:28.366Z,24.37000084
2022-08-25T07:35:23.990Z,24.39999962
2022-08-25T07:36:22.695Z,24.42000008
2022-08-25T07:37:32.245Z,24.44000053
2022-08-25T07:37:47.608Z,24.44000053
2022-08-25T07:37:48.145Z,24.44000053
2022-08-25T07:38:20.771Z,24.48999977
2022-08-25T07:39:15.141Z,24.56999969
2022-08-25T07:40:14.336Z,24.62999916
2022-08-25T07:41:09.673Z,24.64999962
2022-08-25T07:43:07.976Z,24.71999931
2022-08-25T07:44:03.572Z,24.75
2022-08-25T07:45:02.528Z,24.78000069
2022-08-25T07:46:04.884Z,24.79999924
2022-08-25T07:46:57.851Z,24.82999992
2022-08-25T07:47:59.265Z,24.85000038
2022-08-25T07:48:54.825Z,24.88999939
2022-08-25T07:49:55.301Z,24.94000053
2022-08-25T07:52:32.564Z,25.15999985
2022-08-25T07:53:32.450Z,25.22999954
2022-08-25T07:54:33.732Z,25.27000046
2022-08-25T07:54:34.315Z,25.27000046
2022-08-25T07:56:10.750Z,25.37000084
2022-08-25T07:57:11.104Z,25.45999908
2022-08-25T07:58:50.020Z,25.59000015
2022-08-25T07:59:50.170Z,25.67000008
2022-08-25T08:03:10.019Z,26.29999924
2022-08-25T08:03:19.816Z,26.29999924
2022-08-25T08:04:52.472Z,26.64999962
2022-08-25T08:08:09.171Z,26.75
2022-08-25T08:09:46.373Z,26.77000046
2022-08-25T08:11:21.869Z,26.78000069
2022-08-25T08:13:07.227Z,26.81999969
2022-08-25T08:14:02.198Z,26.82999992
2022-08-25T08:16:40.759Z,26.80999947
2022-08-25T08:17:39.449Z,26.88999939
2022-08-25T08:18:40.623Z,26.94000053
2022-08-25T08:19:36.362Z,26.93000031
2022-08-25T08:20:42.628Z,26.87000084
2022-08-25T08:20:43.375Z,26.87000084
2022-08-25T08:21:36.309Z,26.80999947
2022-08-25T08:22:31.902Z,26.80999947
2022-08-25T08:23:34.946Z,26.79000092
2022-08-25T08:24:44.245Z,26.78000069
2022-08-25T08:24:44.563Z,26.78000069
2022-08-25T08:24:54.952Z,26.78000069
2022-08-25T08:25:27.708Z,26.79999924
2022-08-25T08:26:41.896Z,26.80999947
2022-08-25T08:26:55.339Z,26.80999947
2022-08-25T08:26:57.385Z,26.80999947
2022-08-25T08:28:26.465Z,26.90999985
2022-08-25T08:29:22.750Z,26.92000008
2022-08-25T08:30:23.714Z,26.92000008
2022-08-25T08:31:26.545Z,26.89999962
2022-08-25T08:32:19.865Z,26.92000008
2022-08-25T08:33:21.148Z,26.94000053
2022-08-25T08:34:17.354Z,26.97999954
2022-08-25T08:35:16.905Z,26.98999977
2022-08-25T08:36:19.360Z,26.97999954
2022-08-25T08:37:13.698Z,27.02000046
2022-08-25T08:38:18.440Z,27.04999924
2022-08-25T08:38:22.222Z,27.04999924
2022-08-25T08:38:27.064Z,27.04999924
2022-08-25T08:39:13.849Z,27.09000015
2022-08-25T08:40:10.256Z,27.12999916
2022-08-25T08:41:14.019Z,27.15999985
2022-08-25T08:43:13.339Z,27.21999931
2022-08-25T08:43:18.305Z,27.21999931
2022-08-25T08:44:08.712Z,27.27000046
2022-08-25T08:45:04.966Z,27.31999969
2022-08-25T08:46:06.351Z,27.36000061
2022-08-25T08:48:03.221Z,27.34000015
2022-08-25T08:48:59.967Z,27.36000061
2022-08-25T08:50:01.938Z,27.37999916
2022-08-25T08:50:59.280Z,27.38999939
2022-08-25T08:52:57.309Z,27.37000084
2022-08-25T08:53:55.110Z,27.36000061
2022-08-25T08:54:53.836Z,27.36000061
2022-08-25T08:55:54.634Z,27.32999992
2022-08-25T08:56:52.843Z,27.31999969
2022-08-25T08:57:55.496Z,27.34000015
2022-08-25T08:58:49.876Z,27.35000038
2022-08-25T08:59:50.456Z,27.35000038
2022-08-25T09:00:46.772Z,27.35000038
2022-08-25T09:00:52.155Z,27.35000038
2022-08-25T09:02:51.498Z,27.36000061
2022-08-25T09:02:51.983Z,27.36000061
2022-08-25T09:04:30.760Z,27.44000053
2022-08-25T09:05:11.787Z,27.5
2022-08-25T09:06:09.656Z,27.53000069
2022-08-25T09:07:09.991Z,27.54999924
2022-08-25T09:08:06.073Z,27.53000069
2022-08-25T09:09:06.810Z,27.54000092
2022-08-25T09:10:02.278Z,27.53000069
2022-08-25T09:11:01.826Z,27.53000069
2022-08-25T09:11:57.429Z,27.53000069
2022-08-25T09:12:57.219Z,27.53000069
2022-08-25T09:13:53.725Z,27.52000046
2022-08-25T09:14:56.448Z,27.52000046
2022-08-25T09:15:49.230Z,27.54000092
2022-08-25T09:17:45.458Z,27.55999947
2022-08-25T09:17:54.492Z,27.55999947
2022-08-25T09:18:51.247Z,27.61000061
2022-08-25T09:18:52.649Z,27.61000061
2022-08-25T09:19:45.582Z,27.67000008
2022-08-25T09:20:41.771Z,27.71999931
2022-08-25T09:22:36.897Z,27.73999977
2022-08-25T09:23:37.307Z,27.73999977
2022-08-25T09:24:34.161Z,27.75
2022-08-25T09:25:52.317Z,27.73999977
2022-08-25T09:25:53.124Z,27.73999977
2022-08-25T09:25:53.207Z,27.73999977
2022-08-25T09:26:33.285Z,27.78000069
2022-08-25T09:28:32.348Z,27.85000038
2022-08-25T09:29:25.356Z,27.89999962
2022-08-25T09:30:25.634Z,27.87999916
2022-08-25T09:31:21.114Z,27.88999939
2022-08-25T09:32:24.061Z,27.88999939
2022-08-25T09:33:20.876Z,27.87999916
2022-08-25T09:34:17.281Z,27.89999962
2022-08-25T09:35:13.467Z,27.92000008
2022-08-25T09:36:11.150Z,27.93000031
2022-08-25T09:37:11.292Z,27.92000008
2022-08-25T09:38:07.121Z,27.93000031
2022-08-25T09:39:06.616Z,27.92000008
2022-08-25T09:40:06.898Z,27.92000008
2022-08-25T09:41:02.781Z,27.90999985
2022-08-25T09:43:03.424Z,27.92000008
2022-08-25T09:44:03.925Z,27.94000053
2022-08-25T09:45:02.862Z,27.95000076
2022-08-25T09:46:39.689Z,27.98999977
2022-08-25T09:46:44.925Z,27.98999977
2022-08-25T09:47:19.786Z,28.06999969
2022-08-25T09:48:18.871Z,28.12000084
2022-08-25T09:49:18.655Z,28.12999916
2022-08-25T09:50:18.452Z,28.12999916
2022-08-25T09:51:17.328Z,28.12000084
2022-08-25T09:52:12.921Z,28.10000038
2022-08-25T09:53:13.751Z,28.11000061
2022-08-25T09:54:10.944Z,28.12000084
2022-08-25T09:55:09.551Z,28.12000084
2022-08-25T09:56:06.206Z,28.12999916
2022-08-25T09:57:08.789Z,28.12999916
2022-08-25T09:58:01.964Z,28.12999916
2022-08-25T09:58:09.656Z,28.12999916
2022-08-25T09:59:03.214Z,28.13999939
2022-08-25T09:59:57.820Z,28.15999985
2022-08-25T10:00:57.752Z,28.19000053
2022-08-25T10:01:56.936Z,28.15999985
2022-08-25T10:02:56.879Z,28.14999962
2022-08-25T10:03:52.371Z,28.13999939
2022-08-25T10:04:50.623Z,28.12999916
2022-08-25T10:05:49.686Z,28.11000061
2022-08-25T10:05:56.265Z,28.11000061
2022-08-25T10:07:42.429Z,28.19000053
2022-08-25T10:08:44.502Z,28.20000076
2022-08-25T10:09:37.579Z,28.20000076
2022-08-25T10:10:37.303Z,28.20000076
2022-08-25T10:11:35.100Z,28.19000053
2022-08-25T10:12:37.283Z,28.20999908
2022-08-25T10:12:43.126Z,28.20999908
2022-08-25T10:13:35.487Z,28.22999954
2022-08-25T10:14:30.796Z,28.25
2022-08-25T10:15:33.205Z,28.25
2022-08-25T10:16:29.630Z,28.26000023
2022-08-25T10:16:34.499Z,28.26000023
2022-08-25T10:18:25.975Z,28.29999924
2022-08-25T10:19:20.609Z,28.32999992
2022-08-25T10:20:23.530Z,28.32999992
2022-08-25T10:21:18.369Z,28.32999992
2022-08-25T10:23:12.756Z,28.32999992
2022-08-25T10:24:11.331Z,28.30999947
2022-08-25T10:25:13.353Z,28.30999947
2022-08-25T10:26:08.370Z,28.30999947
2022-08-25T10:28:09.286Z,28.29000092
2022-08-25T10:29:03.685Z,28.29000092
2022-08-25T10:30:02.866Z,28.29999924
2022-08-25T10:30:58.088Z,28.29999924
2022-08-25T10:31:54.832Z,28.30999947
2022-08-25T10:33:33.335Z,28.34000015
2022-08-25T10:34:15.158Z,28.38999939
2022-08-25T10:35:14.385Z,28.42000008
2022-08-25T10:36:14.985Z,28.40999985
2022-08-25T10:36:20.381Z,28.40999985
2022-08-25T10:38:13.129Z,28.43000031
2022-08-25T10:38:21.629Z,28.43000031
2022-08-25T10:39:33.848Z,28.44000053
2022-08-25T10:39:33.869Z,28.44000053
2022-08-25T10:39:34.293Z,28.44000053
2022-08-25T10:40:16.724Z,28.48999977
2022-08-25T10:41:11.242Z,28.53000069
2022-08-25T10:43:08.145Z,28.52000046
2022-08-25T10:44:08.080Z,28.51000023
2022-08-25T10:45:04.711Z,28.46999931
2022-08-25T10:46:07.345Z,28.45999908
2022-08-25T10:47:03.529Z,28.44000053
2022-08-25T10:48:05.833Z,28.42000008
2022-08-25T10:49:01.198Z,28.40999985
2022-08-25T10:50:01.634Z,28.38999939
2022-08-25T10:50:56.984Z,28.38999939
2022-08-25T10:51:57.262Z,28.38999939
2022-08-25T10:52:55.074Z,28.39999962
2022-08-25T10:53:54.242Z,28.40999985
2022-08-25T10:54:54.823Z,28.40999985
2022-08-25T10:55:51.183Z,28.42000008
2022-08-25T10:58:00.991Z,28.43000031
2022-08-25T10:58:54.064Z,28.45999908
2022-08-25T10:59:50.497Z,28.47999954
2022-08-25T11:00:53.273Z,28.5
2022-08-25T11:01:48.591Z,28.48999977
2022-08-25T11:01:53.986Z,28.48999977
2022-08-25T11:02:48.926Z,28.5
2022-08-25T11:03:48.897Z,28.48999977
2022-08-25T11:04:48.084Z,28.48999977
2022-08-25T11:05:44.612Z,28.47999954
2022-08-25T11:06:44.778Z,28.45000076
2022-08-25T11:07:40.319Z,28.44000053
2022-08-25T11:08:44.129Z,28.43000031
2022-08-25T11:09:36.887Z,28.42000008
2022-08-25T11:10:38.255Z,28.40999985
2022-08-25T11:11:35.068Z,28.40999985
2022-08-25T11:12:33.086Z,28.42000008
2022-08-25T11:13:37.316Z,28.39999962
2022-08-25T11:14:34.649Z,28.40999985
2022-08-25T11:15:34.536Z,28.42000008
2022-08-25T11:16:31.010Z,28.40999985
2022-08-25T11:17:34.550Z,28.40999985
2022-08-25T11:18:27.544Z,28.40999985
2022-08-25T11:19:30.467Z,28.40999985
2022-08-25T11:20:27.471Z,28.40999985
2022-08-25T11:21:23.834Z,28.43000031
2022-08-25T11:23:21.512Z,28.44000053
2022-08-25T11:24:28.827Z,28.43000031
2022-08-25T11:25:27.663Z,28.43000031
2022-08-25T11:27:05.775Z,28.45999908
2022-08-25T11:27:45.749Z,28.5
2022-08-25T11:28:45.880Z,28.52000046
2022-08-25T11:29:44.221Z,28.53000069
2022-08-25T11:30:44.931Z,28.51000023
2022-08-25T11:31:39.961Z,28.47999954
2022-08-25T11:33:36.236Z,28.46999931
2022-08-25T11:34:31.479Z,28.44000053
2022-08-25T11:35:34.641Z,28.44000053
2022-08-25T11:36:29.817Z,28.44000053